Terminal Aerodrome Forecast
Issued by NWS

Home | Current Version | Previous Version | Text Only | Print | Product List | Glossary On
Versions: 1 2 3 4 5 6 7 8 9 10 11 12 13 14 15 16 17 18 19
297
FTUS43 KMQT 251133
TAFSAW
TAF
KSAW 251133Z 2512/2612 01005KT P6SM BKN070
     FM251600 03009G15KT P6SM SCT045
     FM260100 04004KT P6SM SCT150
     FM260900 00000KT 2SM BR SCT100=

USA.gov is the U.S. government's official web portal to all federal, state and local government web resources and services.